地図

経路データ

SID SEASON NUMBER BASIN SUBBASIN NAME ISO_TIME NATURE LAT LON WMO_WIND WMO_PRES WMO_AGENCY TRACK_TYPE DIST2LAND LANDFALL IFLAG USA_AGENCY USA_ATCF_ID USA_LAT USA_LON USA_RECORD USA_STATUS USA_WIND USA_PRES USA_SSHS USA_R34_NE USA_R34_SE USA_R34_SW USA_R34_NW USA_R50_NE USA_R50_SE USA_R50_SW USA_R50_NW USA_R64_NE USA_R64_SE USA_R64_SW USA_R64_NW USA_POCI USA_ROCI USA_RMW USA_EYE TOKYO_LAT TOKYO_LON TOKYO_GRADE TOKYO_WIND TOKYO_PRES TOKYO_R50_DIR TOKYO_R50_LONG TOKYO_R50_SHORT TOKYO_R30_DIR TOKYO_R30_LONG TOKYO_R30_SHORT TOKYO_LAND CMA_LAT CMA_LON CMA_CAT CMA_WIND CMA_PRES HKO_LAT HKO_LON HKO_CAT HKO_WIND HKO_PRES NEWDELHI_LAT NEWDELHI_LON NEWDELHI_GRADE NEWDELHI_WIND NEWDELHI_PRES NEWDELHI_CI NEWDELHI_DP NEWDELHI_POCI REUNION_LAT REUNION_LON REUNION_TYPE REUNION_WIND REUNION_PRES REUNION_TNUM REUNION_CI REUNION_RMW REUNION_R34_NE REUNION_R34_SE REUNION_R34_SW REUNION_R34_NW REUNION_R50_NE REUNION_R50_SE REUNION_R50_SW REUNION_R50_NW REUNION_R64_NE REUNION_R64_SE REUNION_R64_SW REUNION_R64_NW BOM_LAT BOM_LON BOM_TYPE BOM_WIND BOM_PRES BOM_TNUM BOM_CI BOM_RMW BOM_R34_NE BOM_R34_SE BOM_R34_SW BOM_R34_NW BOM_R50_NE BOM_R50_SE BOM_R50_SW BOM_R50_NW BOM_R64_NE BOM_R64_SE BOM_R64_SW BOM_R64_NW BOM_ROCI BOM_POCI BOM_EYE BOM_POS_METHOD BOM_PRES_METHOD NADI_LAT NADI_LON NADI_CAT NADI_WIND NADI_PRES WELLINGTON_LAT WELLINGTON_LON WELLINGTON_WIND WELLINGTON_PRES DS824_LAT DS824_LON DS824_STAGE DS824_WIND DS824_PRES TD9636_LAT TD9636_LON TD9636_STAGE TD9636_WIND TD9636_PRES TD9635_LAT TD9635_LON TD9635_WIND TD9635_PRES TD9635_ROCI NEUMANN_LAT NEUMANN_LON NEUMANN_CLASS NEUMANN_WIND NEUMANN_PRES MLC_LAT MLC_LON MLC_CLASS MLC_WIND MLC_PRES USA_GUST BOM_GUST BOM_GUST_PER REUNION_GUST REUNION_GUST_PER USA_SEAHGT USA_SEARAD_NE USA_SEARAD_SE USA_SEARAD_SW USA_SEARAD_NW STORM_SPEED STORM_DIR
1907009N10134 1907 1 WP MM NOT_NAMED 1907-01-09 10:00:00 NR 10.4000 133.900 main 852 761 __________O___ -1 10.4000 133.900 7 26 286
1907009N10134 1907 1 WP MM NOT_NAMED 1907-01-09 12:00:00 NR 10.6496 133.043 main 761 645 __________P___ -1 10.6496 133.043 7 26 286
1907009N10134 1907 1 WP MM NOT_NAMED 1907-01-09 15:00:00 NR 11.0031 131.795 main 645 536 __________P___ -1 11.0031 131.795 7 24 286
1907009N10134 1907 1 WP MM NOT_NAMED 1907-01-09 18:00:00 NR 11.3088 130.651 main 536 429 __________P___ -1 11.3088 130.651 7 22 285
1907009N10134 1907 1 WP MM NOT_NAMED 1907-01-09 21:00:00 NR 11.5423 129.676 main 429 398 __________P___ -1 11.5423 129.676 7 19 283
1907009N10134 1907 1 WP MM NOT_NAMED 1907-01-09 22:00:00 NR 11.6000 129.400 main 398 347 __________O___ -1 11.6000 129.400 4 15 281
1907009N10134 1907 1 WP MM NOT_NAMED 1907-01-10 00:00:00 NR 11.6826 128.928 main 347 294 __________P___ -1 11.6826 128.928 4 12 278
1907009N10134 1907 1 WP MM NOT_NAMED 1907-01-10 03:00:00 NR 11.7391 128.380 main 294 242 __________P___ -1 11.7391 128.380 4 10 273
1907009N10134 1907 1 WP MM NOT_NAMED 1907-01-10 06:00:00 NR 11.7396 127.946 main 242 201 __________P___ -1 11.7396 127.946 4 8 268
1907009N10134 1907 1 WP MM NOT_NAMED 1907-01-10 09:00:00 NR 11.7112 127.542 main 201 191 __________P___ -1 11.7112 127.542 4 8 266
1907009N10134 1907 1 WP MM NOT_NAMED 1907-01-10 10:00:00 NR 11.7000 127.400 main 191 152 __________O___ -1 11.7000 127.400 4 10 268
1907009N10134 1907 1 WP MM NOT_NAMED 1907-01-10 12:00:00 NR 11.6948 127.032 main 152 103 __________P___ -1 11.6948 127.032 4 11 268
1907009N10134 1907 1 WP MM NOT_NAMED 1907-01-10 15:00:00 NR 11.6744 126.466 main 103 39 __________P___ -1 11.6744 126.466 4 11 267
1907009N10134 1907 1 WP MM NOT_NAMED 1907-01-10 18:00:00 NR 11.6443 125.905 main 39 0 __________P___ -1 11.6443 125.905 4 11 267
1907009N10134 1907 1 WP MM NOT_NAMED 1907-01-10 21:00:00 NR 11.6108 125.369 main 0 0 __________P___ -1 11.6108 125.369 4 10 266
1907009N10134 1907 1 WP MM NOT_NAMED 1907-01-10 22:00:00 NR 11.6000 125.200 main 0 0 __________O___ -1 11.6000 125.200 4 9 268
1907009N10134 1907 1 WP MM NOT_NAMED 1907-01-11 00:00:00 NR 11.5960 124.894 main 10 10 __________P___ -1 11.5960 124.894 4 9 269
1907009N10134 1907 1 WP MM NOT_NAMED 1907-01-11 03:00:00 NR 11.5907 124.465 main 15 11 __________P___ -1 11.5907 124.465 4 8 268
1907009N10134 1907 1 WP MM NOT_NAMED 1907-01-11 06:00:00 NR 11.5722 124.056 main 11 15 __________P___ -1 11.5722 124.056 4 8 265
1907009N10134 1907 1 WP MM NOT_NAMED 1907-01-11 09:00:00 NR 11.5249 123.642 main 46 43 __________P___ -1 11.5249 123.642 4 8 262
1907009N10134 1907 1 WP MM NOT_NAMED 1907-01-11 10:00:00 NR 11.5000 123.500 main 43 10 __________O___ -1 11.5000 123.500 2 9 258
1907009N10134 1907 1 WP MM NOT_NAMED 1907-01-11 12:00:00 NR 11.4343 123.205 main 10 0 __________P___ -1 11.4343 123.205 2 9 255
1907009N10134 1907 1 WP MM NOT_NAMED 1907-01-11 15:00:00 NR 11.3022 122.741 main 0 0 __________P___ -1 11.3022 122.741 2 10 252
1907009N10134 1907 1 WP MM NOT_NAMED 1907-01-11 18:00:00 NR 11.1404 122.258 main 0 0 __________P___ -1 11.1404 122.258 2 10 250
1907009N10134 1907 1 WP MM NOT_NAMED 1907-01-11 21:00:00 NR 10.9614 121.765 main 24 24 __________P___ -1 10.9614 121.765 2 10 250
1907009N10134 1907 1 WP MM NOT_NAMED 1907-01-11 22:00:00 NR 10.9000 121.600 main 34 __________O___ -1 10.9000 121.600 2 10 249

デジタル台風データ・検索

IBTrACS Databaseについて

本データベースは、米国NOAAが公開する1842年以降の世界の熱帯低気圧のベストトラックデータアーカイブInternational Best Track Archive for Climate Stewardship (IBTrACS)を、ウェブで閲覧しやすい形式に変換したものです。

最終更新日:2021-12-06